sensor_id;sensor_type;location;lat;lon;timestamp;temperature;humidity
1337;DHT22;662;48.814;9.318;2022-08-19T00:01:53;24.60;54.00
1337;DHT22;662;48.814;9.318;2022-08-19T00:04:22;24.50;53.90
1337;DHT22;662;48.814;9.318;2022-08-19T00:06:48;24.50;53.90
1337;DHT22;662;48.814;9.318;2022-08-19T00:09:16;24.50;54.00
1337;DHT22;662;48.814;9.318;2022-08-19T00:11:43;24.50;54.00
1337;DHT22;662;48.814;9.318;2022-08-19T00:14:10;24.50;53.90
1337;DHT22;662;48.814;9.318;2022-08-19T00:16:38;24.50;54.00
1337;DHT22;662;48.814;9.318;2022-08-19T00:19:04;24.50;54.10
1337;DHT22;662;48.814;9.318;2022-08-19T00:21:29;24.40;54.00
1337;DHT22;662;48.814;9.318;2022-08-19T00:23:56;24.40;54.10
1337;DHT22;662;48.814;9.318;2022-08-19T00:26:27;24.40;54.10
1337;DHT22;662;48.814;9.318;2022-08-19T00:28:53;24.40;54.20
1337;DHT22;662;48.814;9.318;2022-08-19T00:31:19;24.40;54.30
1337;DHT22;662;48.814;9.318;2022-08-19T00:33:44;24.40;54.30
1337;DHT22;662;48.814;9.318;2022-08-19T00:36:11;24.40;54.30
1337;DHT22;662;48.814;9.318;2022-08-19T00:38:39;24.40;54.30
1337;DHT22;662;48.814;9.318;2022-08-19T00:41:18;24.40;54.40
1337;DHT22;662;48.814;9.318;2022-08-19T00:46:22;24.40;54.40
1337;DHT22;662;48.814;9.318;2022-08-19T00:48:48;24.30;54.40
1337;DHT22;662;48.814;9.318;2022-08-19T00:51:13;24.30;54.50
1337;DHT22;662;48.814;9.318;2022-08-19T00:53:39;24.30;54.50
1337;DHT22;662;48.814;9.318;2022-08-19T00:56:05;24.30;54.50
1337;DHT22;662;48.814;9.318;2022-08-19T00:58:33;24.30;54.50
1337;DHT22;662;48.814;9.318;2022-08-19T01:01:00;24.30;54.60
1337;DHT22;662;48.814;9.318;2022-08-19T01:03:26;24.30;54.60
1337;DHT22;662;48.814;9.318;2022-08-19T01:05:54;24.20;54.60
1337;DHT22;662;48.814;9.318;2022-08-19T01:08:20;24.30;54.70
1337;DHT22;662;48.814;9.318;2022-08-19T01:10:50;24.30;54.70
1337;DHT22;662;48.814;9.318;2022-08-19T01:13:19;24.30;54.70
1337;DHT22;662;48.814;9.318;2022-08-19T01:15:55;24.20;54.60
1337;DHT22;662;48.814;9.318;2022-08-19T01:18:22;24.20;55.20
1337;DHT22;662;48.814;9.318;2022-08-19T01:20:49;24.20;54.70
1337;DHT22;662;48.814;9.318;2022-08-19T01:23:15;24.20;54.80
1337;DHT22;662;48.814;9.318;2022-08-19T01:25:46;24.20;54.90
1337;DHT22;662;48.814;9.318;2022-08-19T01:28:24;24.20;54.90
1337;DHT22;662;48.814;9.318;2022-08-19T01:30:51;24.20;54.90
1337;DHT22;662;48.814;9.318;2022-08-19T01:33:18;24.20;54.90
1337;DHT22;662;48.814;9.318;2022-08-19T01:35:45;24.20;55.50
1337;DHT22;662;48.814;9.318;2022-08-19T01:38:21;24.10;54.90
1337;DHT22;662;48.814;9.318;2022-08-19T01:40:47;24.10;55.00
1337;DHT22;662;48.814;9.318;2022-08-19T01:43:13;24.10;55.00
1337;DHT22;662;48.814;9.318;2022-08-19T01:45:38;24.10;55.10
1337;DHT22;662;48.814;9.318;2022-08-19T01:48:06;24.10;55.10
1337;DHT22;662;48.814;9.318;2022-08-19T01:50:34;24.10;55.10
1337;DHT22;662;48.814;9.318;2022-08-19T01:53:02;24.10;55.10
1337;DHT22;662;48.814;9.318;2022-08-19T01:55:29;24.10;55.20
1337;DHT22;662;48.814;9.318;2022-08-19T01:57:58;24.10;55.20
1337;DHT22;662;48.814;9.318;2022-08-19T02:00:27;24.00;55.10
1337;DHT22;662;48.814;9.318;2022-08-19T02:02:53;24.00;55.10
1337;DHT22;662;48.814;9.318;2022-08-19T02:05:19;24.00;55.20
1337;DHT22;662;48.814;9.318;2022-08-19T02:07:47;24.00;55.30
1337;DHT22;662;48.814;9.318;2022-08-19T02:10:17;24.00;55.30
1337;DHT22;662;48.814;9.318;2022-08-19T02:12:45;24.00;55.40
1337;DHT22;662;48.814;9.318;2022-08-19T02:15:11;24.00;55.40
1337;DHT22;662;48.814;9.318;2022-08-19T02:17:37;24.00;55.40
1337;DHT22;662;48.814;9.318;2022-08-19T02:20:04;24.00;55.50
1337;DHT22;662;48.814;9.318;2022-08-19T02:22:31;24.00;55.60
1337;DHT22;662;48.814;9.318;2022-08-19T02:24:57;24.00;55.70
1337;DHT22;662;48.814;9.318;2022-08-19T02:27:23;24.00;55.80
1337;DHT22;662;48.814;9.318;2022-08-19T02:29:50;23.90;55.60
1337;DHT22;662;48.814;9.318;2022-08-19T02:32:16;23.90;55.70
1337;DHT22;662;48.814;9.318;2022-08-19T02:34:43;23.90;55.80
1337;DHT22;662;48.814;9.318;2022-08-19T02:37:09;23.80;55.80
1337;DHT22;662;48.814;9.318;2022-08-19T02:39:54;23.80;55.90
1337;DHT22;662;48.814;9.318;2022-08-19T02:42:20;23.80;56.00
1337;DHT22;662;48.814;9.318;2022-08-19T02:44:46;23.80;56.20
1337;DHT22;662;48.814;9.318;2022-08-19T02:47:11;23.80;56.30
1337;DHT22;662;48.814;9.318;2022-08-19T02:49:39;23.80;56.40
1337;DHT22;662;48.814;9.318;2022-08-19T02:52:05;23.80;56.50
1337;DHT22;662;48.814;9.318;2022-08-19T02:54:31;23.70;56.40
1337;DHT22;662;48.814;9.318;2022-08-19T02:56:56;23.70;56.40
1337;DHT22;662;48.814;9.318;2022-08-19T02:59:22;23.70;56.40
1337;DHT22;662;48.814;9.318;2022-08-19T03:01:47;23.70;56.50
1337;DHT22;662;48.814;9.318;2022-08-19T03:04:14;23.70;56.60
1337;DHT22;662;48.814;9.318;2022-08-19T03:06:43;23.70;56.60
1337;DHT22;662;48.814;9.318;2022-08-19T03:09:10;23.70;56.70
1337;DHT22;662;48.814;9.318;2022-08-19T03:11:36;23.70;56.70
1337;DHT22;662;48.814;9.318;2022-08-19T03:14:03;23.70;56.70
1337;DHT22;662;48.814;9.318;2022-08-19T03:16:31;23.70;56.80
1337;DHT22;662;48.814;9.318;2022-08-19T03:18:57;23.60;56.80
1337;DHT22;662;48.814;9.318;2022-08-19T03:21:30;23.60;56.80
1337;DHT22;662;48.814;9.318;2022-08-19T03:23:57;23.60;56.90
1337;DHT22;662;48.814;9.318;2022-08-19T03:26:24;23.60;57.00
1337;DHT22;662;48.814;9.318;2022-08-19T03:28:49;23.60;57.00
1337;DHT22;662;48.814;9.318;2022-08-19T03:31:18;23.60;57.00
1337;DHT22;662;48.814;9.318;2022-08-19T03:33:45;23.50;57.00
1337;DHT22;662;48.814;9.318;2022-08-19T03:36:16;23.50;57.00
1337;DHT22;662;48.814;9.318;2022-08-19T03:38:48;23.50;57.00
1337;DHT22;662;48.814;9.318;2022-08-19T03:41:21;23.50;57.10
1337;DHT22;662;48.814;9.318;2022-08-19T03:43:47;23.50;57.20
1337;DHT22;662;48.814;9.318;2022-08-19T03:46:19;23.50;57.20
1337;DHT22;662;48.814;9.318;2022-08-19T03:48:50;23.50;57.20
1337;DHT22;662;48.814;9.318;2022-08-19T03:51:22;23.50;57.20
1337;DHT22;662;48.814;9.318;2022-08-19T03:53:49;23.50;57.30
1337;DHT22;662;48.814;9.318;2022-08-19T03:56:15;23.40;57.30
1337;DHT22;662;48.814;9.318;2022-08-19T03:58:41;23.40;57.40
1337;DHT22;662;48.814;9.318;2022-08-19T04:01:10;23.40;57.40
1337;DHT22;662;48.814;9.318;2022-08-19T04:03:35;23.40;57.40
1337;DHT22;662;48.814;9.318;2022-08-19T04:06:20;23.30;57.40
1337;DHT22;662;48.814;9.318;2022-08-19T04:08:47;23.30;57.50
1337;DHT22;662;48.814;9.318;2022-08-19T04:11:17;23.30;57.50
1337;DHT22;662;48.814;9.318;2022-08-19T04:13:43;23.40;57.60
1337;DHT22;662;48.814;9.318;2022-08-19T04:16:10;23.40;57.80
1337;DHT22;662;48.814;9.318;2022-08-19T04:18:37;23.30;57.70
1337;DHT22;662;48.814;9.318;2022-08-19T04:21:04;23.30;57.80
1337;DHT22;662;48.814;9.318;2022-08-19T04:23:30;23.30;57.80
1337;DHT22;662;48.814;9.318;2022-08-19T04:25:56;23.30;57.90
1337;DHT22;662;48.814;9.318;2022-08-19T04:28:23;23.30;57.90
1337;DHT22;662;48.814;9.318;2022-08-19T04:30:51;23.30;57.90
1337;DHT22;662;48.814;9.318;2022-08-19T04:33:20;23.30;57.80
1337;DHT22;662;48.814;9.318;2022-08-19T04:35:49;23.30;58.00
1337;DHT22;662;48.814;9.318;2022-08-19T04:38:16;23.30;57.90
1337;DHT22;662;48.814;9.318;2022-08-19T04:40:44;23.30;57.90
1337;DHT22;662;48.814;9.318;2022-08-19T04:43:29;23.30;57.90
1337;DHT22;662;48.814;9.318;2022-08-19T04:45:56;23.40;57.90
1337;DHT22;662;48.814;9.318;2022-08-19T04:48:21;23.30;57.90
1337;DHT22;662;48.814;9.318;2022-08-19T04:50:57;23.30;57.90
1337;DHT22;662;48.814;9.318;2022-08-19T04:53:27;23.30;57.80
1337;DHT22;662;48.814;9.318;2022-08-19T04:55:54;23.30;57.80
1337;DHT22;662;48.814;9.318;2022-08-19T04:58:20;23.30;57.80
1337;DHT22;662;48.814;9.318;2022-08-19T05:00:45;23.30;57.80
1337;DHT22;662;48.814;9.318;2022-08-19T05:03:11;23.30;57.80
1337;DHT22;662;48.814;9.318;2022-08-19T05:05:40;23.30;57.80
1337;DHT22;662;48.814;9.318;2022-08-19T05:08:05;23.30;57.80
1337;DHT22;662;48.814;9.318;2022-08-19T05:10:37;23.30;57.80
1337;DHT22;662;48.814;9.318;2022-08-19T05:13:04;23.30;58.00
1337;DHT22;662;48.814;9.318;2022-08-19T05:15:30;23.30;57.90
1337;DHT22;662;48.814;9.318;2022-08-19T05:17:56;23.30;57.90
1337;DHT22;662;48.814;9.318;2022-08-19T05:20:40;23.30;57.90
1337;DHT22;662;48.814;9.318;2022-08-19T05:23:24;23.30;57.90
1337;DHT22;662;48.814;9.318;2022-08-19T05:25:51;23.30;57.90
1337;DHT22;662;48.814;9.318;2022-08-19T05:28:17;23.30;57.90
1337;DHT22;662;48.814;9.318;2022-08-19T05:30:44;23.30;57.80
1337;DHT22;662;48.814;9.318;2022-08-19T05:33:11;23.30;57.90
1337;DHT22;662;48.814;9.318;2022-08-19T05:35:38;23.30;57.90
1337;DHT22;662;48.814;9.318;2022-08-19T05:38:05;23.20;57.80
1337;DHT22;662;48.814;9.318;2022-08-19T05:40:34;23.20;57.80
1337;DHT22;662;48.814;9.318;2022-08-19T05:43:03;23.20;57.80
1337;DHT22;662;48.814;9.318;2022-08-19T05:45:29;23.20;57.90
1337;DHT22;662;48.814;9.318;2022-08-19T05:47:54;23.20;57.90
1337;DHT22;662;48.814;9.318;2022-08-19T05:50:20;23.20;57.90
1337;DHT22;662;48.814;9.318;2022-08-19T05:52:46;23.20;57.90
1337;DHT22;662;48.814;9.318;2022-08-19T05:55:12;23.20;57.90
1337;DHT22;662;48.814;9.318;2022-08-19T05:57:38;23.20;57.90
1337;DHT22;662;48.814;9.318;2022-08-19T06:00:05;23.20;57.90
1337;DHT22;662;48.814;9.318;2022-08-19T06:02:35;23.20;58.00
1337;DHT22;662;48.814;9.318;2022-08-19T06:05:02;23.30;58.00
1337;DHT22;662;48.814;9.318;2022-08-19T06:07:28;23.20;58.00
1337;DHT22;662;48.814;9.318;2022-08-19T06:09:55;23.20;58.10
1337;DHT22;662;48.814;9.318;2022-08-19T06:12:20;23.20;58.10
1337;DHT22;662;48.814;9.318;2022-08-19T06:14:51;23.20;58.10
1337;DHT22;662;48.814;9.318;2022-08-19T06:17:18;23.20;58.00
1337;DHT22;662;48.814;9.318;2022-08-19T06:19:43;23.20;58.10
1337;DHT22;662;48.814;9.318;2022-08-19T06:22:09;23.20;58.20
1337;DHT22;662;48.814;9.318;2022-08-19T06:24:37;23.20;58.20
1337;DHT22;662;48.814;9.318;2022-08-19T06:27:03;23.20;58.20
1337;DHT22;662;48.814;9.318;2022-08-19T06:29:31;23.30;58.30
1337;DHT22;662;48.814;9.318;2022-08-19T06:31:59;23.30;58.30
1337;DHT22;662;48.814;9.318;2022-08-19T06:34:27;23.20;58.30
1337;DHT22;662;48.814;9.318;2022-08-19T06:36:54;23.20;58.30
1337;DHT22;662;48.814;9.318;2022-08-19T06:39:23;23.30;58.50
1337;DHT22;662;48.814;9.318;2022-08-19T06:41:51;23.30;58.40
1337;DHT22;662;48.814;9.318;2022-08-19T06:44:19;23.30;58.40
1337;DHT22;662;48.814;9.318;2022-08-19T06:46:45;23.30;58.30
1337;DHT22;662;48.814;9.318;2022-08-19T06:49:11;23.30;58.40
1337;DHT22;662;48.814;9.318;2022-08-19T06:51:43;23.30;58.40
1337;DHT22;662;48.814;9.318;2022-08-19T06:54:09;23.30;58.40
1337;DHT22;662;48.814;9.318;2022-08-19T06:56:35;23.30;58.30
1337;DHT22;662;48.814;9.318;2022-08-19T06:59:12;23.30;58.30
1337;DHT22;662;48.814;9.318;2022-08-19T07:01:44;23.40;58.30
1337;DHT22;662;48.814;9.318;2022-08-19T07:04:14;23.40;58.20
1337;DHT22;662;48.814;9.318;2022-08-19T07:06:41;23.40;58.20
1337;DHT22;662;48.814;9.318;2022-08-19T07:09:09;23.40;58.10
1337;DHT22;662;48.814;9.318;2022-08-19T07:11:35;23.50;58.30
1337;DHT22;662;48.814;9.318;2022-08-19T07:14:01;23.50;58.40
1337;DHT22;662;48.814;9.318;2022-08-19T07:16:27;23.50;58.60
1337;DHT22;662;48.814;9.318;2022-08-19T07:18:53;23.50;59.10
1337;DHT22;662;48.814;9.318;2022-08-19T07:21:22;23.50;59.40
1337;DHT22;662;48.814;9.318;2022-08-19T07:23:48;23.50;59.70
1337;DHT22;662;48.814;9.318;2022-08-19T07:26:24;23.50;59.90
1337;DHT22;662;48.814;9.318;2022-08-19T07:28:50;23.50;60.00
1337;DHT22;662;48.814;9.318;2022-08-19T07:31:19;23.50;60.10
1337;DHT22;662;48.814;9.318;2022-08-19T07:33:46;23.60;60.40
1337;DHT22;662;48.814;9.318;2022-08-19T07:36:16;23.60;60.70
1337;DHT22;662;48.814;9.318;2022-08-19T07:38:44;23.60;60.90
1337;DHT22;662;48.814;9.318;2022-08-19T07:41:12;23.60;60.80
1337;DHT22;662;48.814;9.318;2022-08-19T07:43:39;23.60;61.10
1337;DHT22;662;48.814;9.318;2022-08-19T07:46:06;23.60;61.10
1337;DHT22;662;48.814;9.318;2022-08-19T07:48:32;23.60;61.20
1337;DHT22;662;48.814;9.318;2022-08-19T07:51:00;23.70;61.40
1337;DHT22;662;48.814;9.318;2022-08-19T07:53:29;23.70;61.30
1337;DHT22;662;48.814;9.318;2022-08-19T07:55:55;23.70;61.30
1337;DHT22;662;48.814;9.318;2022-08-19T07:58:23;23.70;61.20
1337;DHT22;662;48.814;9.318;2022-08-19T08:00:50;23.70;61.10
1337;DHT22;662;48.814;9.318;2022-08-19T08:03:18;23.70;61.20
1337;DHT22;662;48.814;9.318;2022-08-19T08:05:45;23.70;61.30
1337;DHT22;662;48.814;9.318;2022-08-19T08:08:29;23.70;61.30
1337;DHT22;662;48.814;9.318;2022-08-19T08:11:10;23.70;61.20
1337;DHT22;662;48.814;9.318;2022-08-19T08:13:36;23.60;61.20
1337;DHT22;662;48.814;9.318;2022-08-19T08:16:02;23.60;61.10
1337;DHT22;662;48.814;9.318;2022-08-19T08:18:28;23.60;61.20
1337;DHT22;662;48.814;9.318;2022-08-19T08:20:55;23.60;61.40
1337;DHT22;662;48.814;9.318;2022-08-19T08:23:21;23.60;61.60
1337;DHT22;662;48.814;9.318;2022-08-19T08:25:57;23.60;61.60
1337;DHT22;662;48.814;9.318;2022-08-19T08:28:24;23.60;61.60
1337;DHT22;662;48.814;9.318;2022-08-19T08:30:50;23.60;61.80
1337;DHT22;662;48.814;9.318;2022-08-19T08:33:21;23.60;61.70
1337;DHT22;662;48.814;9.318;2022-08-19T08:35:47;23.60;61.50
1337;DHT22;662;48.814;9.318;2022-08-19T08:38:13;23.70;62.30
1337;DHT22;662;48.814;9.318;2022-08-19T08:40:44;23.70;61.50
1337;DHT22;662;48.814;9.318;2022-08-19T08:46:12;23.70;61.60
1337;DHT22;662;48.814;9.318;2022-08-19T08:48:54;23.80;61.70
1337;DHT22;662;48.814;9.318;2022-08-19T08:51:44;23.80;61.60
1337;DHT22;662;48.814;9.318;2022-08-19T08:54:14;23.90;61.40
1337;DHT22;662;48.814;9.318;2022-08-19T08:56:42;23.90;61.30
1337;DHT22;662;48.814;9.318;2022-08-19T08:59:31;24.00;61.50
1337;DHT22;662;48.814;9.318;2022-08-19T09:01:59;23.90;61.30
1337;DHT22;662;48.814;9.318;2022-08-19T09:04:25;23.90;61.40
1337;DHT22;662;48.814;9.318;2022-08-19T09:07:25;23.90;61.50
1337;DHT22;662;48.814;9.318;2022-08-19T09:10:02;23.90;61.70
1337;DHT22;662;48.814;9.318;2022-08-19T09:12:40;23.80;61.80
1337;DHT22;662;48.814;9.318;2022-08-19T09:15:11;23.80;62.30
1337;DHT22;662;48.814;9.318;2022-08-19T09:17:38;23.80;62.60
1337;DHT22;662;48.814;9.318;2022-08-19T09:20:21;23.80;62.80
1337;DHT22;662;48.814;9.318;2022-08-19T09:22:50;23.80;62.90
1337;DHT22;662;48.814;9.318;2022-08-19T09:25:19;23.80;63.10
1337;DHT22;662;48.814;9.318;2022-08-19T09:27:47;23.70;63.00
1337;DHT22;662;48.814;9.318;2022-08-19T09:30:17;23.70;63.10
1337;DHT22;662;48.814;9.318;2022-08-19T09:32:44;23.70;63.90
1337;DHT22;662;48.814;9.318;2022-08-19T09:35:11;23.70;63.90
1337;DHT22;662;48.814;9.318;2022-08-19T09:37:38;23.70;62.90
1337;DHT22;662;48.814;9.318;2022-08-19T09:40:04;23.70;62.60
1337;DHT22;662;48.814;9.318;2022-08-19T09:42:30;23.70;62.40
1337;DHT22;662;48.814;9.318;2022-08-19T09:44:56;23.80;62.60
1337;DHT22;662;48.814;9.318;2022-08-19T09:47:21;23.70;62.60
1337;DHT22;662;48.814;9.318;2022-08-19T09:49:47;23.80;62.90
1337;DHT22;662;48.814;9.318;2022-08-19T09:52:14;23.80;63.30
1337;DHT22;662;48.814;9.318;2022-08-19T09:54:41;23.80;63.50
1337;DHT22;662;48.814;9.318;2022-08-19T09:57:06;23.80;63.60
1337;DHT22;662;48.814;9.318;2022-08-19T09:59:32;23.70;63.60
1337;DHT22;662;48.814;9.318;2022-08-19T10:01:58;23.70;63.70
1337;DHT22;662;48.814;9.318;2022-08-19T10:04:24;23.70;64.10
1337;DHT22;662;48.814;9.318;2022-08-19T10:07:10;23.60;64.30
1337;DHT22;662;48.814;9.318;2022-08-19T10:09:36;23.60;64.80
1337;DHT22;662;48.814;9.318;2022-08-19T10:12:03;23.60;65.40
1337;DHT22;662;48.814;9.318;2022-08-19T10:14:30;23.60;65.80
1337;DHT22;662;48.814;9.318;2022-08-19T10:16:56;23.50;66.00
1337;DHT22;662;48.814;9.318;2022-08-19T10:19:22;23.50;67.10
1337;DHT22;662;48.814;9.318;2022-08-19T10:21:48;23.50;66.60
1337;DHT22;662;48.814;9.318;2022-08-19T10:24:13;23.40;66.60
1337;DHT22;662;48.814;9.318;2022-08-19T10:26:40;23.30;66.60
1337;DHT22;662;48.814;9.318;2022-08-19T10:29:13;23.30;66.80
1337;DHT22;662;48.814;9.318;2022-08-19T10:31:41;23.30;67.20
1337;DHT22;662;48.814;9.318;2022-08-19T10:34:07;23.20;67.50
1337;DHT22;662;48.814;9.318;2022-08-19T10:36:35;23.20;68.00
1337;DHT22;662;48.814;9.318;2022-08-19T10:39:07;23.20;68.50
1337;DHT22;662;48.814;9.318;2022-08-19T10:41:35;23.10;68.60
1337;DHT22;662;48.814;9.318;2022-08-19T10:44:04;23.10;68.90
1337;DHT22;662;48.814;9.318;2022-08-19T10:46:31;23.10;69.20
1337;DHT22;662;48.814;9.318;2022-08-19T10:49:01;23.10;69.30
1337;DHT22;662;48.814;9.318;2022-08-19T10:51:27;23.10;69.60
1337;DHT22;662;48.814;9.318;2022-08-19T10:54:12;23.10;69.90
1337;DHT22;662;48.814;9.318;2022-08-19T10:56:37;23.00;70.10
1337;DHT22;662;48.814;9.318;2022-08-19T10:59:27;23.00;70.30
1337;DHT22;662;48.814;9.318;2022-08-19T11:01:58;23.00;70.30
1337;DHT22;662;48.814;9.318;2022-08-19T11:04:24;23.00;70.50
1337;DHT22;662;48.814;9.318;2022-08-19T11:06:50;23.00;70.60
1337;DHT22;662;48.814;9.318;2022-08-19T11:09:20;23.10;70.60
1337;DHT22;662;48.814;9.318;2022-08-19T11:11:46;23.10;71.20
1337;DHT22;662;48.814;9.318;2022-08-19T11:14:15;23.10;71.30
1337;DHT22;662;48.814;9.318;2022-08-19T11:16:42;23.10;71.60
1337;DHT22;662;48.814;9.318;2022-08-19T11:19:09;23.10;71.90
1337;DHT22;662;48.814;9.318;2022-08-19T11:21:40;23.10;72.10
1337;DHT22;662;48.814;9.318;2022-08-19T11:24:12;23.10;72.50
1337;DHT22;662;48.814;9.318;2022-08-19T11:26:39;23.10;72.50
1337;DHT22;662;48.814;9.318;2022-08-19T11:29:06;23.10;72.50
1337;DHT22;662;48.814;9.318;2022-08-19T11:31:33;23.20;72.60
1337;DHT22;662;48.814;9.318;2022-08-19T11:34:03;23.30;72.60
1337;DHT22;662;48.814;9.318;2022-08-19T11:36:30;23.30;72.30
1337;DHT22;662;48.814;9.318;2022-08-19T11:38:58;23.40;72.30
1337;DHT22;662;48.814;9.318;2022-08-19T11:41:24;23.40;72.10
1337;DHT22;662;48.814;9.318;2022-08-19T11:43:50;23.50;72.10
1337;DHT22;662;48.814;9.318;2022-08-19T11:46:17;23.50;71.90
1337;DHT22;662;48.814;9.318;2022-08-19T11:48:43;23.50;71.70
1337;DHT22;662;48.814;9.318;2022-08-19T11:51:12;23.60;71.70
1337;DHT22;662;48.814;9.318;2022-08-19T11:53:38;23.60;71.80
1337;DHT22;662;48.814;9.318;2022-08-19T11:56:06;23.60;71.60
1337;DHT22;662;48.814;9.318;2022-08-19T11:58:32;23.70;71.70
1337;DHT22;662;48.814;9.318;2022-08-19T12:00:58;23.70;71.40
1337;DHT22;662;48.814;9.318;2022-08-19T12:03:24;23.70;71.70
1337;DHT22;662;48.814;9.318;2022-08-19T12:05:49;23.70;71.90
1337;DHT22;662;48.814;9.318;2022-08-19T12:08:16;23.80;72.20
1337;DHT22;662;48.814;9.318;2022-08-19T12:10:43;23.80;72.30
1337;DHT22;662;48.814;9.318;2022-08-19T12:13:10;23.90;72.50
1337;DHT22;662;48.814;9.318;2022-08-19T12:15:39;23.90;72.60
1337;DHT22;662;48.814;9.318;2022-08-19T12:18:07;24.00;72.60
1337;DHT22;662;48.814;9.318;2022-08-19T12:20:37;24.10;72.80
1337;DHT22;662;48.814;9.318;2022-08-19T12:23:04;24.20;72.90
1337;DHT22;662;48.814;9.318;2022-08-19T12:25:30;24.30;72.90
1337;DHT22;662;48.814;9.318;2022-08-19T12:27:57;24.30;72.80
1337;DHT22;662;48.814;9.318;2022-08-19T12:30:23;24.30;72.60
1337;DHT22;662;48.814;9.318;2022-08-19T12:32:49;24.40;72.60
1337;DHT22;662;48.814;9.318;2022-08-19T12:35:16;24.40;72.30
1337;DHT22;662;48.814;9.318;2022-08-19T12:37:42;24.40;72.10
1337;DHT22;662;48.814;9.318;2022-08-19T12:40:11;24.50;72.00
1337;DHT22;662;48.814;9.318;2022-08-19T12:42:38;24.40;72.10
1337;DHT22;662;48.814;9.318;2022-08-19T12:45:08;24.40;72.00
1337;DHT22;662;48.814;9.318;2022-08-19T12:47:34;24.40;72.10
1337;DHT22;662;48.814;9.318;2022-08-19T12:50:01;24.30;71.80
1337;DHT22;662;48.814;9.318;2022-08-19T12:52:27;24.30;72.00
1337;DHT22;662;48.814;9.318;2022-08-19T12:54:54;24.20;72.10
1337;DHT22;662;48.814;9.318;2022-08-19T12:57:22;24.20;72.30
1337;DHT22;662;48.814;9.318;2022-08-19T12:59:52;24.10;72.40
1337;DHT22;662;48.814;9.318;2022-08-19T13:02:19;24.00;72.40
1337;DHT22;662;48.814;9.318;2022-08-19T13:04:45;24.00;72.50
1337;DHT22;662;48.814;9.318;2022-08-19T13:07:11;23.90;72.50
1337;DHT22;662;48.814;9.318;2022-08-19T13:09:37;23.90;72.70
1337;DHT22;662;48.814;9.318;2022-08-19T13:12:03;23.80;72.70
1337;DHT22;662;48.814;9.318;2022-08-19T13:14:33;23.70;73.10
1337;DHT22;662;48.814;9.318;2022-08-19T13:16:59;23.60;73.30
1337;DHT22;662;48.814;9.318;2022-08-19T13:19:25;23.60;73.70
1337;DHT22;662;48.814;9.318;2022-08-19T13:21:52;23.50;74.20
1337;DHT22;662;48.814;9.318;2022-08-19T13:24:19;23.50;74.40
1337;DHT22;662;48.814;9.318;2022-08-19T13:26:45;23.40;74.60
1337;DHT22;662;48.814;9.318;2022-08-19T13:29:10;23.30;75.40
1337;DHT22;662;48.814;9.318;2022-08-19T13:31:55;23.30;75.00
1337;DHT22;662;48.814;9.318;2022-08-19T13:34:39;23.30;75.20
1337;DHT22;662;48.814;9.318;2022-08-19T13:37:04;23.20;75.40
1337;DHT22;662;48.814;9.318;2022-08-19T13:39:32;23.20;75.80
1337;DHT22;662;48.814;9.318;2022-08-19T13:41:58;23.10;75.80
1337;DHT22;662;48.814;9.318;2022-08-19T13:44:26;23.10;75.80
1337;DHT22;662;48.814;9.318;2022-08-19T13:46:59;23.10;76.50
1337;DHT22;662;48.814;9.318;2022-08-19T13:49:28;23.00;76.00
1337;DHT22;662;48.814;9.318;2022-08-19T13:51:56;23.00;76.20
1337;DHT22;662;48.814;9.318;2022-08-19T13:54:22;23.00;76.40
1337;DHT22;662;48.814;9.318;2022-08-19T13:56:48;23.10;76.90
1337;DHT22;662;48.814;9.318;2022-08-19T13:59:13;23.10;76.90
1337;DHT22;662;48.814;9.318;2022-08-19T14:01:40;23.10;76.60
1337;DHT22;662;48.814;9.318;2022-08-19T14:04:07;23.20;76.50
1337;DHT22;662;48.814;9.318;2022-08-19T14:06:33;23.20;76.60
1337;DHT22;662;48.814;9.318;2022-08-19T14:08:59;23.20;76.60
1337;DHT22;662;48.814;9.318;2022-08-19T14:11:25;23.20;76.60
1337;DHT22;662;48.814;9.318;2022-08-19T14:13:51;23.20;76.30
1337;DHT22;662;48.814;9.318;2022-08-19T14:16:17;23.30;76.20
1337;DHT22;662;48.814;9.318;2022-08-19T14:18:43;23.30;76.00
1337;DHT22;662;48.814;9.318;2022-08-19T14:21:16;23.30;75.90
1337;DHT22;662;48.814;9.318;2022-08-19T14:23:43;23.20;75.60
1337;DHT22;662;48.814;9.318;2022-08-19T14:26:11;23.20;75.40
1337;DHT22;662;48.814;9.318;2022-08-19T14:28:39;23.10;74.60
1337;DHT22;662;48.814;9.318;2022-08-19T14:31:08;23.00;74.00
1337;DHT22;662;48.814;9.318;2022-08-19T14:33:33;23.00;74.10
1337;DHT22;662;48.814;9.318;2022-08-19T14:35:59;22.90;74.40
1337;DHT22;662;48.814;9.318;2022-08-19T14:38:26;22.90;74.20
1337;DHT22;662;48.814;9.318;2022-08-19T14:40:52;22.90;74.20
1337;DHT22;662;48.814;9.318;2022-08-19T14:43:18;22.90;74.10
1337;DHT22;662;48.814;9.318;2022-08-19T14:45:44;22.80;73.80
1337;DHT22;662;48.814;9.318;2022-08-19T14:48:10;22.80;73.70
1337;DHT22;662;48.814;9.318;2022-08-19T14:50:36;22.70;73.60
1337;DHT22;662;48.814;9.318;2022-08-19T14:53:06;22.70;73.70
1337;DHT22;662;48.814;9.318;2022-08-19T14:55:33;22.60;73.80
1337;DHT22;662;48.814;9.318;2022-08-19T14:57:59;22.60;74.20
1337;DHT22;662;48.814;9.318;2022-08-19T15:00:27;22.60;74.50
1337;DHT22;662;48.814;9.318;2022-08-19T15:02:53;22.50;74.30
1337;DHT22;662;48.814;9.318;2022-08-19T15:05:20;22.50;74.40
1337;DHT22;662;48.814;9.318;2022-08-19T15:07:46;22.50;75.00
1337;DHT22;662;48.814;9.318;2022-08-19T15:10:13;22.50;75.40
1337;DHT22;662;48.814;9.318;2022-08-19T15:12:39;22.50;75.50
1337;DHT22;662;48.814;9.318;2022-08-19T15:15:07;22.50;75.90
1337;DHT22;662;48.814;9.318;2022-08-19T15:17:33;22.50;76.30
1337;DHT22;662;48.814;9.318;2022-08-19T15:20:04;22.50;76.30
1337;DHT22;662;48.814;9.318;2022-08-19T15:22:30;22.50;76.50
1337;DHT22;662;48.814;9.318;2022-08-19T15:24:55;22.60;76.70
1337;DHT22;662;48.814;9.318;2022-08-19T15:27:21;22.60;76.60
1337;DHT22;662;48.814;9.318;2022-08-19T15:29:47;22.60;76.60
1337;DHT22;662;48.814;9.318;2022-08-19T15:32:12;22.70;76.60
1337;DHT22;662;48.814;9.318;2022-08-19T15:34:38;22.70;76.40
1337;DHT22;662;48.814;9.318;2022-08-19T15:37:04;22.70;76.20
1337;DHT22;662;48.814;9.318;2022-08-19T15:39:31;22.80;76.20
1337;DHT22;662;48.814;9.318;2022-08-19T15:41:56;22.80;76.00
1337;DHT22;662;48.814;9.318;2022-08-19T15:44:25;22.80;75.80
1337;DHT22;662;48.814;9.318;2022-08-19T15:46:53;22.80;75.80
1337;DHT22;662;48.814;9.318;2022-08-19T15:49:20;22.80;75.80
1337;DHT22;662;48.814;9.318;2022-08-19T15:51:47;22.80;75.70
1337;DHT22;662;48.814;9.318;2022-08-19T15:54:16;22.80;75.50
1337;DHT22;662;48.814;9.318;2022-08-19T15:56:42;22.80;75.50
1337;DHT22;662;48.814;9.318;2022-08-19T15:59:32;22.80;75.50
1337;DHT22;662;48.814;9.318;2022-08-19T16:02:19;22.70;75.60
1337;DHT22;662;48.814;9.318;2022-08-19T16:05:06;22.70;75.70
1337;DHT22;662;48.814;9.318;2022-08-19T16:07:50;22.60;75.80
1337;DHT22;662;48.814;9.318;2022-08-19T16:10:16;22.60;75.70
1337;DHT22;662;48.814;9.318;2022-08-19T16:12:42;22.70;75.80
1337;DHT22;662;48.814;9.318;2022-08-19T16:15:08;22.70;75.80
1337;DHT22;662;48.814;9.318;2022-08-19T16:17:34;22.70;75.80
1337;DHT22;662;48.814;9.318;2022-08-19T16:20:02;22.80;75.80
1337;DHT22;662;48.814;9.318;2022-08-19T16:22:30;22.80;75.80
1337;DHT22;662;48.814;9.318;2022-08-19T16:24:57;22.80;75.80
1337;DHT22;662;48.814;9.318;2022-08-19T16:27:22;22.80;75.80
1337;DHT22;662;48.814;9.318;2022-08-19T16:29:48;22.80;76.60